Time;durP1;ratioP1;P1;durP2;ratioP2;P2;SDS_P1;SDS_P2;PMS_P1;PMS_P2;Temp;Humidity;BMP_temperature;BMP_pressure;BME280_temperature;BME280_humidity;BME280_pressure;Samples;Min_cycle;Max_cycle;Signal;HPM_P1;HPM_P2
2022/07/18 00:01:35;;;;;;;3.88;1.50;;;;;;;17.74;36.22;96417.81;5021644;28;20681;-81
2022/07/18 00:04:01;;;;;;;3.60;1.63;;;;;;;17.70;36.22;96421.78;5036939;28;20186;-81
2022/07/18 00:06:26;;;;;;;2.08;1.50;;;;;;;17.65;36.39;96418.81;5026547;28;20337;-81
2022/07/18 00:08:52;;;;;;;3.45;1.25;;;;;;;17.63;36.84;96418.16;5001824;28;20261;-82
2022/07/18 00:11:18;;;;;;;1.85;1.33;;;;;;;17.58;36.67;96417.88;5032994;28;20202;-82
2022/07/18 00:13:43;;;;;;;2.28;1.20;;;;;;;17.57;36.82;96418.84;5035440;28;20181;-81
2022/07/18 00:16:08;;;;;;;1.90;1.33;;;;;;;17.50;36.81;96416.09;5034145;28;20170;-81
2022/07/18 00:18:34;;;;;;;1.50;1.30;;;;;;;17.51;36.82;96417.72;5034261;28;20663;-81
2022/07/18 00:20:59;;;;;;;2.35;1.58;;;;;;;17.48;36.68;96414.59;5034208;28;20697;-81
2022/07/18 00:23:24;;;;;;;3.83;1.83;;;;;;;17.45;36.68;96420.22;5035824;28;20182;-82
2022/07/18 00:25:50;;;;;;;1.67;1.30;;;;;;;17.40;36.93;96415.44;5052815;28;20568;-82
2022/07/18 00:28:15;;;;;;;1.77;1.27;;;;;;;17.42;36.69;96412.69;5019506;28;20205;-82
2022/07/18 00:30:41;;;;;;;2.00;1.20;;;;;;;17.40;36.62;96414.63;5017700;28;20547;-82
2022/07/18 00:33:06;;;;;;;2.30;1.20;;;;;;;17.41;36.97;96416.28;5017376;28;20194;-82
2022/07/18 00:35:31;;;;;;;2.97;1.23;;;;;;;17.38;36.64;96408.72;5016814;28;20562;-82
2022/07/18 00:37:57;;;;;;;2.05;1.25;;;;;;;17.36;37.25;96408.91;5017441;28;20658;-80
2022/07/18 00:40:22;;;;;;;3.13;1.20;;;;;;;17.35;36.23;96409.91;5017867;28;20174;-80
2022/07/18 00:42:47;;;;;;;3.22;1.40;;;;;;;17.38;36.24;96409.56;5018142;28;20686;-82
2022/07/18 00:45:13;;;;;;;2.92;1.40;;;;;;;17.34;36.30;96407.44;5034636;28;20597;-81
2022/07/18 00:47:38;;;;;;;2.15;1.20;;;;;;;17.30;36.33;96406.13;5019073;28;20198;-82
2022/07/18 00:50:05;;;;;;;3.45;1.38;;;;;;;17.33;36.09;96409.25;5018483;28;20706;-81
2022/07/18 00:52:31;;;;;;;2.35;1.23;;;;;;;17.39;35.83;96408.56;5035489;28;20252;-82
2022/07/18 00:54:56;;;;;;;4.15;1.25;;;;;;;17.46;35.72;96408.72;5023549;28;20246;-81
2022/07/18 00:57:21;;;;;;;2.35;1.10;;;;;;;17.46;35.35;96408.72;5029212;28;20174;-80
2022/07/18 01:02:31;;;;;;;2.75;1.50;;;;;;;17.53;34.61;96409.69;5027459;28;20205;-82
2022/07/18 01:04:56;;;;;;;2.90;1.30;;;;;;;17.54;34.80;96406.88;5002828;28;20178;-81
2022/07/18 01:07:22;;;;;;;4.35;1.20;;;;;;;17.59;34.68;96410.81;5003046;28;20198;-81
2022/07/18 01:09:47;;;;;;;3.95;1.30;;;;;;;17.57;35.03;96405.72;5018293;28;20178;-83
2022/07/18 01:12:13;;;;;;;1.63;1.40;;;;;;;17.50;35.08;96405.59;5018107;28;20198;-82
2022/07/18 01:14:39;;;;;;;1.15;1.05;;;;;;;17.52;35.08;96402.78;5017516;28;20537;-82
2022/07/18 01:17:12;;;;;;;3.15;1.50;;;;;;;17.47;34.72;96397.22;5017664;28;20174;-82
2022/07/18 01:19:37;;;;;;;2.53;1.50;;;;;;;17.44;34.81;96401.00;5041926;28;20189;-80
2022/07/18 01:22:02;;;;;;;3.63;1.40;;;;;;;17.44;34.69;96398.38;5037758;28;20204;-81
2022/07/18 01:24:27;;;;;;;4.10;1.30;;;;;;;17.53;34.44;96399.19;5036693;28;20186;-81
2022/07/18 01:26:53;;;;;;;1.60;1.20;;;;;;;17.49;34.56;96403.09;5037529;28;20236;-81
2022/07/18 01:29:18;;;;;;;1.77;1.15;;;;;;;17.40;34.61;96404.94;5037044;28;20712;-81
2022/07/18 01:31:43;;;;;;;2.63;1.60;;;;;;;17.34;34.21;96394.31;5037218;28;20726;-81
2022/07/18 01:34:09;;;;;;;2.45;1.65;;;;;;;17.50;34.09;96400.34;5036709;28;20633;-81
2022/07/18 01:36:34;;;;;;;1.52;1.15;;;;;;;17.43;34.09;96406.44;5037305;28;20169;-81
2022/07/18 01:38:59;;;;;;;1.98;1.25;;;;;;;17.50;33.67;96410.84;5037015;28;20216;-82
2022/07/18 01:41:24;;;;;;;2.72;1.20;;;;;;;17.38;34.35;96395.59;5037009;28;20202;-81
2022/07/18 01:43:50;;;;;;;3.20;1.42;;;;;;;17.38;33.98;96400.84;5036298;28;20636;-81
2022/07/18 01:46:15;;;;;;;2.55;1.00;;;;;;;17.40;33.77;96396.25;5036430;28;20201;-81
2022/07/18 01:48:41;;;;;;;1.63;0.95;;;;;;;17.40;33.80;96404.13;5036587;28;20205;-81
2022/07/18 01:51:10;;;;;;;1.90;1.23;;;;;;;17.35;33.49;96396.78;5035984;28;20193;-81
2022/07/18 01:53:37;;;;;;;1.10;0.98;;;;;;;17.42;33.28;96397.75;5035471;28;20178;-81
2022/07/18 01:56:04;;;;;;;3.90;1.20;;;;;;;17.46;32.99;96392.97;5036357;28;20274;-82
2022/07/18 01:58:29;;;;;;;2.78;1.13;;;;;;;17.44;32.95;96395.75;5053233;28;20276;-81
2022/07/18 02:00:54;;;;;;;2.67;1.17;;;;;;;17.47;32.78;96394.59;5035799;28;20638;-81
2022/07/18 02:03:20;;;;;;;1.95;1.20;;;;;;;17.42;32.93;96399.56;5036005;28;20196;-81
2022/07/18 02:05:45;;;;;;;5.60;1.00;;;;;;;17.39;32.80;96395.44;5035440;28;20186;-80
2022/07/18 02:08:10;;;;;;;2.15;1.20;;;;;;;17.49;33.33;96398.72;5053845;28;20580;-81
2022/07/18 02:10:36;;;;;;;1.30;1.10;;;;;;;17.38;32.76;96392.97;5052191;28;20178;-81
2022/07/18 02:13:01;;;;;;;1.67;1.10;;;;;;;17.28;32.97;96394.00;5035998;28;20202;-81
2022/07/18 02:15:26;;;;;;;2.13;1.13;;;;;;;17.28;33.22;96390.56;5035483;28;20560;-81
2022/07/18 02:17:52;;;;;;;2.20;1.45;;;;;;;17.25;33.76;96391.72;5035982;28;20638;-81
2022/07/18 02:20:17;;;;;;;1.92;1.10;;;;;;;17.14;33.96;96393.84;5036209;28;20178;-82
2022/07/18 02:22:43;;;;;;;1.55;0.90;;;;;;;17.05;34.06;96394.88;5037247;28;20193;-82
2022/07/18 02:25:09;;;;;;;2.85;0.95;;;;;;;17.08;33.93;96397.19;5059029;28;20202;-82
2022/07/18 02:27:35;;;;;;;1.75;1.10;;;;;;;16.99;34.26;96391.13;5059850;28;20224;-82
2022/07/18 02:30:00;;;;;;;1.10;1.00;;;;;;;16.89;34.66;96388.69;5051883;28;20662;-82
2022/07/18 02:32:25;;;;;;;1.70;1.13;;;;;;;16.84;34.62;96384.91;5038278;28;20529;-82
2022/07/18 02:34:50;;;;;;;2.25;1.17;;;;;;;16.79;35.15;96381.97;5037662;28;20177;-82
2022/07/18 02:37:16;;;;;;;1.25;1.00;;;;;;;16.75;34.98;96388.53;5039432;28;20207;-81
2022/07/18 02:39:41;;;;;;;1.95;1.25;;;;;;;16.72;34.99;96388.88;5036631;28;20193;-81
2022/07/18 02:42:06;;;;;;;1.50;1.02;;;;;;;16.72;34.70;96386.25;5036983;28;20193;-82
2022/07/18 02:44:32;;;;;;;2.25;1.10;;;;;;;16.69;34.74;96382.13;5036700;28;20308;-82
2022/07/18 02:46:57;;;;;;;4.18;0.98;;;;;;;16.66;34.75;96380.63;5053347;28;20205;-81
2022/07/18 02:49:29;;;;;;;1.10;1.00;;;;;;;16.63;34.77;96380.16;5036824;28;20182;-81
2022/07/18 02:52:05;;;;;;;1.15;1.05;;;;;;;16.63;34.84;96380.16;5037228;28;20654;-81
2022/07/18 02:54:33;;;;;;;1.50;0.93;;;;;;;16.62;34.49;96379.34;5035662;28;20228;-81
2022/07/18 02:56:58;;;;;;;2.20;1.30;;;;;;;16.61;34.53;96388.19;5036953;28;20166;-81
2022/07/18 02:59:26;;;;;;;2.28;1.10;;;;;;;16.64;33.99;96382.59;5036326;28;20671;-82
2022/07/18 03:01:51;;;;;;;2.03;1.00;;;;;;;16.67;34.04;96389.31;5037415;28;20572;-81
2022/07/18 03:04:18;;;;;;;2.30;1.05;;;;;;;16.66;33.59;96387.69;5046507;28;20181;-81
2022/07/18 03:06:43;;;;;;;1.58;1.23;;;;;;;16.70;33.28;96392.47;5031522;28;20213;-82
2022/07/18 03:09:09;;;;;;;2.83;1.27;;;;;;;16.72;33.02;96388.88;5048898;28;20181;-81
2022/07/18 03:11:34;;;;;;;1.67;1.10;;;;;;;16.72;33.24;96386.25;5047512;28;20232;-81
2022/07/18 03:13:59;;;;;;;1.58;1.00;;;;;;;16.73;32.91;96388.69;5036886;28;20278;-81
2022/07/18 03:16:25;;;;;;;3.70;1.33;;;;;;;16.73;33.10;96393.94;5035685;28;20243;-81
2022/07/18 03:18:50;;;;;;;2.75;1.20;;;;;;;16.71;33.24;96395.91;5035471;28;20657;-81
2022/07/18 03:21:15;;;;;;;2.38;1.00;;;;;;;16.67;33.68;96392.75;5034539;28;20649;-80
2022/07/18 03:23:41;;;;;;;2.33;0.98;;;;;;;16.66;33.68;96385.06;5034258;28;20243;-80
2022/07/18 03:26:06;;;;;;;2.05;1.15;;;;;;;16.64;33.61;96384.41;5034253;28;20285;-81
2022/07/18 03:28:31;;;;;;;3.28;1.15;;;;;;;16.61;33.85;96385.56;5033876;28;20238;-80
2022/07/18 03:30:58;;;;;;;3.15;1.23;;;;;;;16.61;33.67;96385.56;5034194;28;20182;-80
2022/07/18 03:33:24;;;;;;;1.40;1.10;;;;;;;16.61;33.70;96382.94;5034542;28;20174;-81
2022/07/18 03:35:50;;;;;;;2.45;1.30;;;;;;;16.60;33.63;96385.69;5033403;28;20189;-80
2022/07/18 03:38:15;;;;;;;3.05;1.15;;;;;;;16.60;33.86;96385.69;5034185;28;20184;-80
2022/07/18 03:40:40;;;;;;;2.72;1.52;;;;;;;16.61;33.75;96385.56;5034622;28;20595;-81
2022/07/18 03:43:05;;;;;;;3.35;1.00;;;;;;;16.65;33.43;96383.41;5034248;28;20624;-81
2022/07/18 03:45:31;;;;;;;1.98;1.00;;;;;;;16.67;33.28;96381.44;5017239;28;20189;-81
2022/07/18 03:47:56;;;;;;;2.45;0.90;;;;;;;16.68;33.49;96383.06;5017681;28;20241;-80
2022/07/18 03:50:21;;;;;;;2.20;1.02;;;;;;;16.74;33.42;96381.63;5034320;28;20556;-81
2022/07/18 03:52:47;;;;;;;2.33;1.08;;;;;;;16.78;33.28;96382.94;5034140;28;20194;-81
2022/07/18 03:55:13;;;;;;;1.75;0.95;;;;;;;16.84;33.45;96383.09;5049403;28;20216;-81
2022/07/18 03:57:38;;;;;;;1.40;1.17;;;;;;;16.91;33.42;96381.47;5033769;28;20190;-81
2022/07/18 04:00:07;;;;;;;1.67;1.10;;;;;;;17.02;33.33;96384.72;5033847;28;20182;-80
2022/07/18 04:02:33;;;;;;;1.92;0.90;;;;;;;17.13;32.76;96374.66;5034833;28;20204;-81
2022/07/18 04:04:58;;;;;;;4.40;1.13;;;;;;;17.28;32.58;96380.06;5033494;28;20178;-80
2022/07/18 04:07:23;;;;;;;1.77;1.10;;;;;;;18.06;31.79;96382.69;5033783;28;20202;-81
2022/07/18 04:09:49;;;;;;;1.90;0.90;;;;;;;19.27;29.87;96383.69;5034119;28;20551;-80
2022/07/18 04:12:14;;;;;;;2.20;1.02;;;;;;;20.53;27.72;96380.75;5033998;28;20208;-81
2022/07/18 04:14:39;;;;;;;1.25;1.15;;;;;;;21.51;26.37;96381.66;5035521;28;20563;-80
2022/07/18 04:17:04;;;;;;;1.95;1.08;;;;;;;22.37;25.10;96390.75;5037261;28;20173;-82
2022/07/18 04:19:30;;;;;;;2.88;1.00;;;;;;;22.82;24.47;96383.06;5037078;28;20189;-81
2022/07/18 04:21:55;;;;;;;2.85;1.10;;;;;;;22.56;24.13;96382.03;5037895;28;20206;-81
2022/07/18 04:24:20;;;;;;;2.70;1.25;;;;;;;22.01;24.80;96375.19;5036635;28;20182;-81
2022/07/18 04:26:45;;;;;;;4.68;1.20;;;;;;;21.47;25.57;96379.44;5037583;28;20205;-81
2022/07/18 04:29:11;;;;;;;1.92;1.13;;;;;;;21.12;25.81;96378.56;5055226;28;20201;-81
2022/07/18 04:31:37;;;;;;;3.83;1.40;;;;;;;20.80;26.57;96376.50;5037597;28;20760;-81
2022/07/18 04:34:02;;;;;;;1.38;1.27;;;;;;;20.41;27.77;96383.03;5036675;28;20178;-81
2022/07/18 04:36:27;;;;;;;1.67;1.20;;;;;;;20.51;27.76;96388.84;5037365;28;20174;-81
2022/07/18 04:38:53;;;;;;;1.73;1.20;;;;;;;22.16;25.82;96394.34;5037106;28;20174;-81
2022/07/18 04:41:22;;;;;;;3.28;1.30;;;;;;;24.29;23.09;96388.63;5037357;28;20226;-81
2022/07/18 04:43:48;;;;;;;2.72;1.10;;;;;;;26.21;21.10;96392.19;5036924;28;20556;-80
2022/07/18 04:46:13;;;;;;;3.83;1.17;;;;;;;27.89;18.91;96390.91;5036943;28;20202;-81
2022/07/18 04:48:38;;;;;;;1.33;1.10;;;;;;;28.20;18.91;96386.97;5037433;28;20661;-81
2022/07/18 04:51:04;;;;;;;2.03;1.05;;;;;;;29.23;17.32;96387.69;5053581;28;20186;-82
2022/07/18 04:53:29;;;;;;;2.65;1.15;;;;;;;30.32;16.11;96387.00;5036086;28;20188;-82
2022/07/18 04:55:54;;;;;;;1.38;1.00;;;;;;;29.56;17.38;96391.41;5038082;28;20178;-82
2022/07/18 04:58:20;;;;;;;2.33;1.10;;;;;;;30.04;16.43;96387.16;5037416;28;20592;-81
2022/07/18 05:00:45;;;;;;;1.95;1.02;;;;;;;29.84;17.33;96379.72;5054105;28;20653;-82
2022/07/18 05:03:10;;;;;;;1.70;1.10;;;;;;;30.20;16.31;96385.50;5037470;28;20201;-82
2022/07/18 05:05:35;;;;;;;1.30;1.02;;;;;;;30.14;17.06;96377.44;5037480;28;20189;-81
2022/07/18 05:08:01;;;;;;;4.63;1.33;;;;;;;31.10;16.15;96389.31;5037760;28;20202;-83
2022/07/18 05:10:26;;;;;;;2.58;1.10;;;;;;;31.33;16.18;96380.13;5039188;28;20170;-81
2022/07/18 05:12:53;;;;;;;3.15;1.00;;;;;;;31.32;16.57;96389.25;5059685;28;20205;-81
2022/07/18 05:15:19;;;;;;;1.35;1.20;;;;;;;32.22;15.62;96389.94;5058647;28;20177;-82
2022/07/18 05:17:45;;;;;;;2.17;1.20;;;;;;;31.35;15.56;96389.50;5052772;28;20265;-78
2022/07/18 05:20:13;;;;;;;1.83;1.05;;;;;;;32.91;14.28;96384.22;5057669;28;20210;-79
2022/07/18 05:22:38;;;;;;;1.77;1.10;;;;;;;34.47;12.96;96389.47;5043852;28;20198;-80
2022/07/18 05:25:05;;;;;;;2.40;1.00;;;;;;;32.59;15.31;96395.16;5052902;28;20194;-79
2022/07/18 05:27:31;;;;;;;1.95;1.02;;;;;;;32.89;14.58;96387.16;5053205;28;20205;-79
2022/07/18 05:29:56;;;;;;;3.08;1.27;;;;;;;33.03;14.30;96389.31;5037655;28;20535;-79
2022/07/18 05:32:21;;;;;;;1.75;1.17;;;;;;;34.34;13.90;96396.25;5036432;28;20194;-79
2022/07/18 05:34:47;;;;;;;1.05;0.85;;;;;;;34.19;13.95;96392.81;5035826;28;20548;-79
2022/07/18 05:37:12;;;;;;;3.38;1.13;;;;;;;34.84;12.99;96396.25;5035907;28;20193;-79
2022/07/18 05:39:38;;;;;;;2.35;1.13;;;;;;;34.22;13.40;96390.41;5036290;28;20178;-79
2022/07/18 05:42:03;;;;;;;2.28;0.90;;;;;;;34.01;13.50;96396.94;5030351;28;20197;-79
2022/07/18 05:44:29;;;;;;;1.88;1.05;;;;;;;34.55;13.41;96396.97;5039620;28;20715;-79
2022/07/18 05:46:54;;;;;;;2.20;1.20;;;;;;;36.03;12.42;96409.97;5013809;28;20562;-78
2022/07/18 05:49:19;;;;;;;2.22;1.35;;;;;;;33.71;14.48;96398.66;5015512;28;20316;-78
2022/07/18 05:51:46;;;;;;;3.78;1.02;;;;;;;33.22;14.01;96399.28;4999272;28;20235;-78
2022/07/18 05:54:11;;;;;;;2.35;1.10;;;;;;;33.38;14.32;96400.06;5031371;28;20657;-78
2022/07/18 05:56:37;;;;;;;1.50;1.33;;;;;;;34.46;13.43;96401.34;5015350;28;20182;-78
2022/07/18 05:59:02;;;;;;;2.30;1.20;;;;;;;36.15;11.82;96404.19;5032832;28;20186;-78
2022/07/18 06:01:28;;;;;;;3.15;1.35;;;;;;;35.96;12.10;96403.34;5035334;28;20281;-78
2022/07/18 06:03:53;;;;;;;2.60;1.30;;;;;;;36.72;12.00;96405.03;5034160;28;20193;-78
2022/07/18 06:06:19;;;;;;;1.15;1.05;;;;;;;37.61;11.21;96404.13;5031437;28;20233;-78
2022/07/18 06:08:44;;;;;;;2.53;1.27;;;;;;;34.56;13.52;96392.41;5019549;28;20215;-79
2022/07/18 06:11:10;;;;;;;3.38;1.13;;;;;;;35.79;12.74;96397.56;5051888;28;20221;-78
2022/07/18 06:13:37;;;;;;;2.22;1.50;;;;;;;35.62;12.80;96404.22;5033175;28;20207;-77
2022/07/18 06:16:04;;;;;;;3.65;2.22;;;;;;;35.26;12.90;96401.06;5018044;28;20178;-79
2022/07/18 06:18:29;;;;;;;2.65;2.45;;;;;;;36.82;12.16;96404.06;5014185;28;20182;-79
2022/07/18 06:20:54;;;;;;;4.30;2.22;;;;;;;36.97;12.26;96405.75;5034587;28;20178;-79
2022/07/18 06:23:20;;;;;;;2.78;1.80;;;;;;;36.53;12.56;96396.91;5019106;28;20185;-78
2022/07/18 06:25:45;;;;;;;2.60;1.55;;;;;;;37.07;12.48;96397.47;5052168;28;20235;-78
2022/07/18 06:28:10;;;;;;;1.73;1.50;;;;;;;36.89;12.30;96401.03;5035031;28;20576;-80
2022/07/18 06:30:35;;;;;;;4.05;1.80;;;;;;;35.82;13.35;96399.69;5019212;28;20188;-79
2022/07/18 06:33:04;;;;;;;2.40;1.60;;;;;;;35.63;13.53;96395.03;5035863;28;20240;-79
2022/07/18 06:35:30;;;;;;;3.92;1.65;;;;;;;36.64;12.70;96399.47;5053080;28;20680;-79
2022/07/18 06:37:55;;;;;;;2.03;1.35;;;;;;;37.33;12.36;96404.09;5018708;28;20213;-79
2022/07/18 06:40:20;;;;;;;1.88;1.58;;;;;;;35.79;13.26;96401.06;5035817;28;20182;-79
2022/07/18 06:42:46;;;;;;;2.35;1.75;;;;;;;34.44;15.01;96405.41;5018924;28;20194;-79
2022/07/18 06:45:11;;;;;;;2.00;1.55;;;;;;;35.19;14.00;96409.47;5035766;28;20232;-79
2022/07/18 06:47:36;;;;;;;2.97;1.65;;;;;;;36.27;13.25;96401.03;5036133;28;20685;-81
2022/07/18 06:50:02;;;;;;;3.40;1.60;;;;;;;36.57;13.46;96391.72;5018880;28;20184;-79
2022/07/18 06:52:27;;;;;;;3.45;1.40;;;;;;;36.39;12.92;96400.63;5018422;28;20677;-78
2022/07/18 06:54:52;;;;;;;2.03;1.67;;;;;;;36.74;12.93;96397.41;5033702;28;20182;-78
2022/07/18 06:57:20;;;;;;;1.95;1.63;;;;;;;36.94;12.85;96404.47;5034505;28;20189;-79
2022/07/18 06:59:45;;;;;;;1.40;1.30;;;;;;;36.81;12.60;96402.47;5035130;28;20231;-80
2022/07/18 07:02:10;;;;;;;1.77;1.60;;;;;;;35.93;13.38;96401.19;5034907;28;20220;-78
2022/07/18 07:04:36;;;;;;;3.22;1.80;;;;;;;37.14;12.11;96404.13;5033656;28;20174;-78
2022/07/18 07:07:01;;;;;;;1.85;1.42;;;;;;;35.50;13.75;96405.69;5034228;28;20205;-78
2022/07/18 07:09:26;;;;;;;2.42;1.90;;;;;;;35.52;14.09;96398.09;5034866;28;20188;-78
2022/07/18 07:11:52;;;;;;;2.33;1.30;;;;;;;36.06;14.25;96400.50;5018162;28;20197;-78
2022/07/18 07:14:17;;;;;;;1.67;1.40;;;;;;;37.62;13.23;96405.72;5050929;28;20178;-78
2022/07/18 07:16:42;;;;;;;6.25;1.95;;;;;;;35.61;14.02;96401.81;5017853;28;20633;-78
2022/07/18 07:19:07;;;;;;;1.92;1.50;;;;;;;36.27;13.90;96409.97;5015527;28;20188;-79
2022/07/18 07:21:33;;;;;;;2.63;1.40;;;;;;;36.86;13.70;96405.13;5047286;28;20320;-78
2022/07/18 07:23:58;;;;;;;4.55;1.67;;;;;;;37.31;12.91;96405.50;5030663;28;20648;-79
2022/07/18 07:26:23;;;;;;;2.13;1.67;;;;;;;37.34;12.82;96405.69;5047275;28;20209;-78
2022/07/18 07:28:49;;;;;;;3.35;1.42;;;;;;;36.78;13.19;96406.56;5029509;28;20564;-78
2022/07/18 07:31:14;;;;;;;1.85;1.38;;;;;;;35.74;14.03;96396.53;5028717;28;20583;-76
2022/07/18 07:33:39;;;;;;;2.90;1.50;;;;;;;35.26;14.17;96397.53;5028372;28;20205;-77
2022/07/18 07:36:05;;;;;;;1.80;1.70;;;;;;;35.56;14.19;96399.97;5012749;28;20546;-80
2022/07/18 07:38:30;;;;;;;2.38;1.67;;;;;;;35.89;13.91;96398.28;5029269;28;20182;-78
2022/07/18 07:40:56;;;;;;;2.88;1.60;;;;;;;34.30;14.44;96394.41;5047101;28;20566;-78
2022/07/18 07:43:21;;;;;;;4.47;1.67;;;;;;;35.03;15.02;96399.88;5046886;28;20185;-77
2022/07/18 07:45:48;;;;;;;1.65;1.55;;;;;;;35.54;14.52;96404.06;5028890;28;20192;-78
2022/07/18 07:48:15;;;;;;;1.60;1.48;;;;;;;34.86;14.96;96396.75;5028437;28;20209;-79
2022/07/18 07:50:40;;;;;;;3.03;1.80;;;;;;;35.47;15.10;96396.28;5051349;28;20178;-79
2022/07/18 07:53:06;;;;;;;1.77;1.60;;;;;;;35.49;15.02;96396.78;5053008;28;20691;-79
2022/07/18 07:55:31;;;;;;;4.47;1.50;;;;;;;35.08;15.57;96389.06;5035137;28;20208;-79
2022/07/18 07:57:56;;;;;;;2.45;1.50;;;;;;;34.30;17.08;96394.41;5036362;28;20673;-79
2022/07/18 08:00:22;;;;;;;1.65;1.55;;;;;;;34.31;16.23;96393.31;5019247;28;20256;-79
2022/07/18 08:03:14;;;;;;;4.28;1.50;;;;;;;34.36;15.88;96391.38;5018564;28;20198;-78
2022/07/18 08:05:46;;;;;;;2.35;1.63;;;;;;;34.11;16.22;96396.13;5024061;28;20673;-79
2022/07/18 08:08:12;;;;;;;1.67;1.42;;;;;;;33.13;17.90;96392.00;5019762;28;20585;-79
2022/07/18 08:10:37;;;;;;;3.08;1.60;;;;;;;33.17;17.77;96387.69;5036489;28;20177;-78
2022/07/18 08:13:02;;;;;;;3.78;1.60;;;;;;;32.89;17.76;96395.25;5036627;28;20272;-78
2022/07/18 08:15:28;;;;;;;3.47;1.98;;;;;;;33.18;17.70;96394.69;5036143;28;20186;-77
2022/07/18 08:17:54;;;;;;;3.83;1.83;;;;;;;32.62;17.64;96394.66;5021044;28;20684;-79
2022/07/18 08:20:20;;;;;;;3.00;1.80;;;;;;;32.41;18.16;96391.91;5053058;28;20173;-78
2022/07/18 08:22:55;;;;;;;2.72;1.58;;;;;;;31.68;19.04;96403.69;5036852;28;20194;-79
2022/07/18 08:25:21;;;;;;;1.60;1.50;;;;;;;32.51;17.82;96384.94;5036762;28;20221;-78
2022/07/18 08:27:47;;;;;;;2.60;1.65;;;;;;;31.75;18.01;96386.25;5041355;28;20209;-78
2022/07/18 08:30:12;;;;;;;2.78;1.73;;;;;;;31.46;17.77;96385.84;5036517;28;20227;-78
2022/07/18 08:32:37;;;;;;;6.38;1.60;;;;;;;31.64;18.29;96386.47;5053051;28;20568;-78
2022/07/18 08:35:03;;;;;;;3.38;1.60;;;;;;;32.17;17.68;96384.59;5052007;28;20174;-78
2022/07/18 08:37:29;;;;;;;2.42;1.70;;;;;;;31.30;18.74;96386.81;5036311;28;20220;-80
2022/07/18 08:39:54;;;;;;;1.80;1.70;;;;;;;30.72;19.08;96383.91;5053736;28;20186;-79
2022/07/18 08:42:23;;;;;;;4.63;1.95;;;;;;;31.46;19.29;96380.47;5053354;28;20201;-79
2022/07/18 08:44:49;;;;;;;1.90;1.80;;;;;;;30.99;19.55;96383.06;5052325;28;20228;-78
2022/07/18 08:47:16;;;;;;;5.22;2.08;;;;;;;30.38;19.40;96380.59;5036081;28;20201;-79
2022/07/18 08:49:41;;;;;;;2.13;1.90;;;;;;;29.87;20.20;96374.69;5036273;28;20256;-78
2022/07/18 08:52:06;;;;;;;3.30;1.90;;;;;;;29.84;20.44;96380.50;5052767;28;20276;-79
2022/07/18 08:54:32;;;;;;;3.10;1.90;;;;;;;30.37;19.80;96378.19;5035677;28;20170;-79
2022/07/18 08:56:57;;;;;;;2.35;1.48;;;;;;;30.07;20.65;96376.81;5036086;28;20178;-79
2022/07/18 08:59:23;;;;;;;2.42;1.80;;;;;;;29.83;20.53;96380.78;5053056;28;20252;-79
2022/07/18 09:01:48;;;;;;;5.53;1.90;;;;;;;30.38;20.17;96388.66;5035972;28;20306;-79
2022/07/18 09:04:34;;;;;;;6.07;2.08;;;;;;;30.13;20.17;96383.84;5052596;28;20623;-79
2022/07/18 09:07:00;;;;;;;3.50;1.88;;;;;;;29.95;20.96;96392.19;5066339;28;20261;-78
2022/07/18 09:09:25;;;;;;;5.18;1.75;;;;;;;30.11;20.31;96391.31;5069643;28;20623;-78
2022/07/18 09:11:56;;;;;;;2.22;1.85;;;;;;;29.42;20.23;96388.25;5035913;28;20194;-78
2022/07/18 09:14:31;;;;;;;2.85;1.67;;;;;;;29.92;19.96;96381.94;5036124;28;20241;-79
2022/07/18 09:17:01;;;;;;;3.58;1.77;;;;;;;30.28;20.34;96380.50;5071443;28;20211;-79
2022/07/18 09:19:26;;;;;;;2.53;1.70;;;;;;;30.25;19.87;96386.38;5057697;28;20178;-79
2022/07/18 09:21:51;;;;;;;2.92;1.95;;;;;;;30.00;20.04;96384.19;5055939;28;20225;-79
2022/07/18 09:24:17;;;;;;;2.33;1.58;;;;;;;30.08;20.50;96386.47;5055023;28;20185;-78
2022/07/18 09:26:43;;;;;;;1.77;1.67;;;;;;;29.56;20.76;96384.19;5019161;28;20224;-82
2022/07/18 09:29:13;;;;;;;2.67;1.80;;;;;;;30.13;20.34;96373.13;5037757;28;20185;-82
2022/07/18 09:31:39;;;;;;;2.65;1.90;;;;;;;29.97;19.70;96382.03;5028309;28;20228;-83
2022/07/18 09:34:06;;;;;;;2.42;1.88;;;;;;;29.97;19.85;96379.34;5036084;28;20213;-82
2022/07/18 09:36:36;;;;;;;2.10;1.90;;;;;;;29.68;19.47;96370.66;5052244;28;20170;-83
2022/07/18 09:39:16;;;;;;;2.92;1.90;;;;;;;30.24;20.48;96376.72;5019021;28;20181;-82
2022/07/18 09:41:42;;;;;;;2.42;1.42;;;;;;;30.57;20.46;96367.69;5011331;28;20559;-83
2022/07/18 09:44:15;;;;;;;3.47;1.65;;;;;;;30.67;19.50;96378.53;5035390;28;20258;-82
2022/07/18 09:47:03;;;;;;;2.80;1.58;;;;;;;30.91;19.79;96370.94;5034801;28;20296;-82
2022/07/18 09:49:33;;;;;;;2.00;1.58;;;;;;;30.95;18.98;96364.00;5017833;28;20178;-82
2022/07/18 09:52:07;;;;;;;3.03;1.70;;;;;;;31.08;18.92;96370.78;5035011;28;20209;-83
2022/07/18 09:54:43;;;;;;;1.80;1.70;;;;;;;31.26;18.71;96381.13;5034524;28;20572;-83
2022/07/18 09:57:09;;;;;;;2.53;1.98;;;;;;;30.93;18.60;96373.38;5018994;28;20173;-82
2022/07/18 09:59:36;;;;;;;4.63;1.77;;;;;;;30.71;18.10;96376.94;5017099;28;20272;-82
2022/07/18 10:02:05;;;;;;;5.28;1.85;;;;;;;31.16;18.36;96374.88;5034680;28;20237;-78
2022/07/18 10:04:31;;;;;;;2.10;1.77;;;;;;;31.06;17.75;96370.25;5018174;28;20174;-79
2022/07/18 10:06:56;;;;;;;2.58;1.73;;;;;;;31.47;17.70;96374.03;5034605;28;20212;-78
2022/07/18 10:09:22;;;;;;;3.60;1.35;;;;;;;30.87;17.74;96371.72;5034824;28;20180;-78
2022/07/18 10:11:48;;;;;;;2.55;1.60;;;;;;;31.19;17.64;96374.38;5017632;28;20206;-79
2022/07/18 10:14:13;;;;;;;2.08;1.70;;;;;;;31.21;18.21;96383.00;5034325;28;20174;-78
2022/07/18 10:16:38;;;;;;;5.07;1.67;;;;;;;31.38;17.84;96377.47;5051535;28;20184;-78
2022/07/18 10:19:03;;;;;;;2.10;1.90;;;;;;;31.49;18.16;96379.16;5034719;28;20170;-79
2022/07/18 10:21:30;;;;;;;3.78;1.58;;;;;;;31.47;17.81;96378.59;5052296;28;20692;-78
2022/07/18 10:23:55;;;;;;;4.30;1.70;;;;;;;31.20;16.92;96374.13;5033562;28;20174;-78
2022/07/18 10:26:26;;;;;;;1.10;1.08;;;;;;;31.63;17.59;96372.25;5033766;28;20188;-78
2022/07/18 10:29:00;;;;;;;4.50;1.60;;;;;;;30.93;18.01;96370.69;5033850;28;20189;-78
2022/07/18 10:31:30;;;;;;;3.78;1.85;;;;;;;30.73;17.61;96369.44;5051959;28;20224;-79
2022/07/18 10:34:04;;;;;;;4.85;1.70;;;;;;;30.88;18.27;96366.09;5034437;28;20677;-80
2022/07/18 10:36:29;;;;;;;4.45;1.70;;;;;;;30.89;18.11;96364.22;5034801;28;20181;-80
2022/07/18 10:39:10;;;;;;;2.92;1.92;;;;;;;31.52;17.83;96366.00;5034855;28;20185;-80
2022/07/18 10:41:39;;;;;;;2.85;1.80;;;;;;;31.02;17.36;96364.59;5034815;28;20221;-80
2022/07/18 10:44:30;;;;;;;5.72;1.60;;;;;;;31.19;17.81;96367.13;5051925;28;20648;-80
2022/07/18 10:47:18;;;;;;;2.75;1.30;;;;;;;31.40;17.59;96372.66;5039566;28;20576;-80
2022/07/18 10:49:50;;;;;;;2.17;1.98;;;;;;;31.55;18.41;96367.38;5017966;28;20185;-80
2022/07/18 10:52:38;;;;;;;3.30;1.70;;;;;;;31.03;18.07;96354.69;5033358;28;20250;-80
2022/07/18 10:57:50;;;;;;;3.60;1.75;;;;;;;31.48;17.81;96369.47;5051921;28;20170;-79
2022/07/18 11:00:23;;;;;;;2.17;1.48;;;;;;;31.49;16.96;96358.47;5051754;28;20201;-80
2022/07/18 11:03:05;;;;;;;3.08;1.60;;;;;;;31.74;17.29;96359.69;5017430;28;20321;-79
2022/07/18 11:05:32;;;;;;;3.53;1.60;;;;;;;31.69;17.66;96356.97;5032097;28;20338;-80
2022/07/18 11:07:57;;;;;;;2.17;1.80;;;;;;;31.59;17.28;96349.66;5029689;28;20217;-80
2022/07/18 11:10:41;;;;;;;2.78;1.48;;;;;;;31.31;17.38;96342.00;5033782;28;20182;-79
2022/07/18 11:13:25;;;;;;;1.50;1.40;;;;;;;31.36;17.78;96345.50;5051632;28;20726;-80
2022/07/18 11:16:12;;;;;;;3.60;1.70;;;;;;;31.95;17.31;96334.53;5032112;28;20181;-80
2022/07/18 11:18:40;;;;;;;2.00;1.58;;;;;;;31.96;17.55;96338.81;5049949;28;20649;-79
2022/07/18 11:21:20;;;;;;;3.75;1.40;;;;;;;32.05;17.15;96349.88;5048551;28;20190;-80
2022/07/18 11:24:01;;;;;;;1.95;1.60;;;;;;;32.03;17.77;96341.28;5047774;28;20666;-80
2022/07/18 11:26:26;;;;;;;2.75;1.70;;;;;;;32.72;16.63;96338.19;5050106;28;20243;-80
2022/07/18 11:29:07;;;;;;;3.33;1.45;;;;;;;32.22;17.18;96328.97;5048962;28;20224;-80
2022/07/18 11:32:03;;;;;;;2.17;1.45;;;;;;;32.74;16.68;96333.34;5067217;28;20672;-80
2022/07/18 11:34:28;;;;;;;1.75;1.50;;;;;;;32.60;15.65;96324.19;5051580;28;20189;-80
2022/07/18 11:36:53;;;;;;;2.17;1.90;;;;;;;31.84;16.54;96320.28;5034856;28;20169;-80
2022/07/18 11:39:32;;;;;;;2.60;1.60;;;;;;;31.97;16.59;96321.63;5034582;28;20181;-80